createdAt,value
2023-02-05T00:01:33.224Z,1.52
2023-02-05T00:04:01.000Z,1.42
2023-02-05T00:06:28.117Z,1.60
2023-02-05T00:08:57.835Z,1.30
2023-02-05T00:11:25.349Z,1.80
2023-02-05T00:13:52.594Z,1.73
2023-02-05T00:16:22.932Z,1.83
2023-02-05T00:18:50.254Z,1.75
2023-02-05T00:21:18.172Z,1.65
2023-02-05T00:23:45.468Z,2.38
2023-02-05T00:26:14.614Z,1.75
2023-02-05T00:28:42.852Z,1.83
2023-02-05T00:31:16.195Z,1.98
2023-02-05T00:33:43.929Z,1.85
2023-02-05T00:36:12.845Z,2.35
2023-02-05T00:38:40.925Z,2.38
2023-02-05T00:41:10.801Z,2.05
2023-02-05T00:43:41.744Z,2.45
2023-02-05T00:46:10.508Z,2.35
2023-02-05T00:48:37.823Z,3.05
2023-02-05T00:51:05.393Z,2.53
2023-02-05T00:53:32.803Z,3.47
2023-02-05T00:56:01.066Z,2.92
2023-02-05T00:58:28.456Z,3.88
2023-02-05T01:00:57.887Z,4.03
2023-02-05T01:03:25.196Z,3.88
2023-02-05T01:05:52.236Z,3.17
2023-02-05T01:08:19.308Z,3.80
2023-02-05T01:10:48.963Z,4.35
2023-02-05T01:13:18.035Z,4.40
2023-02-05T01:15:46.988Z,4.40
2023-02-05T01:18:14.323Z,4.30
2023-02-05T01:20:42.848Z,5.10
2023-02-05T01:23:11.301Z,4.45
2023-02-05T01:25:39.417Z,4.57
2023-02-05T01:28:08.276Z,4.93
2023-02-05T01:30:36.199Z,4.63
2023-02-05T01:33:04.149Z,4.18
2023-02-05T01:35:32.178Z,4.28
2023-02-05T01:37:59.868Z,5.00
2023-02-05T01:40:27.953Z,4.47
2023-02-05T01:42:55.176Z,4.32
2023-02-05T01:45:22.294Z,4.65
2023-02-05T01:47:53.591Z,4.95
2023-02-05T01:50:44.620Z,5.85
2023-02-05T01:53:16.711Z,5.68
2023-02-05T01:56:07.895Z,5.53
2023-02-05T01:58:42.135Z,5.85
2023-02-05T02:01:09.230Z,5.47
2023-02-05T02:03:36.914Z,5.63
2023-02-05T02:06:05.282Z,5.43
2023-02-05T02:08:34.063Z,5.82
2023-02-05T02:11:03.993Z,5.18
2023-02-05T02:13:34.167Z,5.70
2023-02-05T02:16:05.926Z,6.05
2023-02-05T02:18:34.824Z,5.72
2023-02-05T02:21:24.171Z,6.05
2023-02-05T02:24:15.488Z,6.45
2023-02-05T02:26:54.861Z,6.00
2023-02-05T02:29:51.706Z,5.70
2023-02-05T02:32:38.878Z,6.15
2023-02-05T02:35:29.021Z,6.75
2023-02-05T02:38:07.531Z,6.15
2023-02-05T02:40:41.744Z,6.25
2023-02-05T02:43:14.702Z,5.95
2023-02-05T02:45:54.934Z,6.63
2023-02-05T02:48:25.160Z,6.53
2023-02-05T02:50:55.456Z,6.85
2023-02-05T02:53:34.692Z,6.10
2023-02-05T02:56:06.595Z,6.18
2023-02-05T02:58:43.763Z,7.88
2023-02-05T03:01:13.146Z,6.65
2023-02-05T03:03:48.416Z,6.50
2023-02-05T03:06:16.937Z,6.78
2023-02-05T03:09:05.908Z,6.32
2023-02-05T03:11:35.400Z,5.85
2023-02-05T03:14:02.931Z,6.43
2023-02-05T03:16:34.596Z,6.10
2023-02-05T03:19:03.121Z,6.47
2023-02-05T03:21:40.021Z,7.13
2023-02-05T03:24:08.491Z,6.75
2023-02-05T03:26:36.578Z,7.40
2023-02-05T03:29:13.653Z,7.38
2023-02-05T03:32:13.280Z,7.45
2023-02-05T03:35:02.606Z,7.95
2023-02-05T03:37:45.793Z,8.93
2023-02-05T03:40:37.525Z,8.75
2023-02-05T03:43:25.721Z,8.18
2023-02-05T03:45:59.480Z,9.18
2023-02-05T03:48:38.013Z,9.82
2023-02-05T03:51:37.879Z,10.30
2023-02-05T03:54:32.687Z,9.68
2023-02-05T03:57:10.865Z,10.00
2023-02-05T03:59:40.515Z,12.25
2023-02-05T04:02:08.200Z,10.23
2023-02-05T04:04:41.801Z,11.35
2023-02-05T04:07:10.192Z,11.27
2023-02-05T04:09:38.502Z,11.00
2023-02-05T04:12:05.852Z,11.13
2023-02-05T04:14:34.068Z,11.68
2023-02-05T04:17:01.217Z,11.23
2023-02-05T04:19:28.177Z,10.48
2023-02-05T04:21:58.610Z,11.00
2023-02-05T04:24:26.353Z,11.52
2023-02-05T04:26:54.109Z,10.93
2023-02-05T04:29:21.317Z,7.90
2023-02-05T04:31:50.973Z,5.82
2023-02-05T04:34:19.099Z,5.25
2023-02-05T04:36:46.690Z,6.13
2023-02-05T04:39:13.756Z,5.50
2023-02-05T04:41:41.838Z,4.95
2023-02-05T04:44:08.886Z,4.53
2023-02-05T04:46:36.059Z,3.92
2023-02-05T04:49:03.188Z,3.65
2023-02-05T04:51:30.193Z,3.80
2023-02-05T04:53:57.287Z,5.30
2023-02-05T04:56:24.831Z,4.05
2023-02-05T04:58:51.983Z,4.70
2023-02-05T05:01:22.082Z,3.25
2023-02-05T05:03:49.964Z,4.32
2023-02-05T05:06:19.176Z,3.90
2023-02-05T05:08:46.537Z,3.33
2023-02-05T05:11:18.994Z,4.63
2023-02-05T05:13:46.925Z,4.30
2023-02-05T05:16:14.396Z,4.78
2023-02-05T05:18:42.096Z,4.65
2023-02-05T05:21:11.409Z,3.92
2023-02-05T05:23:38.647Z,5.10
2023-02-05T05:26:07.654Z,4.55
2023-02-05T05:28:36.843Z,3.83
2023-02-05T05:31:13.593Z,3.72
2023-02-05T05:33:40.648Z,4.57
2023-02-05T05:36:08.346Z,3.25
2023-02-05T05:38:35.697Z,3.47
2023-02-05T05:41:21.615Z,3.38
2023-02-05T05:43:50.171Z,3.72
2023-02-05T05:46:22.609Z,4.85
2023-02-05T05:48:52.500Z,3.80
2023-02-05T05:51:20.614Z,4.07
2023-02-05T05:53:48.363Z,4.20
2023-02-05T05:56:16.843Z,3.65
2023-02-05T05:58:45.128Z,3.78
2023-02-05T06:01:19.444Z,4.88
2023-02-05T06:03:46.401Z,5.20
2023-02-05T06:06:14.808Z,3.88
2023-02-05T06:08:42.022Z,4.13
2023-02-05T06:11:09.047Z,4.65
2023-02-05T06:13:36.371Z,4.90
2023-02-05T06:16:04.723Z,4.90
2023-02-05T06:18:33.244Z,4.80
2023-02-05T06:21:01.672Z,3.70
2023-02-05T06:23:28.672Z,4.20
2023-02-05T06:25:55.652Z,4.05
2023-02-05T06:28:22.618Z,3.90
2023-02-05T06:30:49.775Z,3.83
2023-02-05T06:33:16.871Z,4.65
2023-02-05T06:35:43.840Z,3.95
2023-02-05T06:38:11.245Z,4.57
2023-02-05T06:40:38.568Z,4.40
2023-02-05T06:43:05.700Z,5.18
2023-02-05T06:45:33.038Z,5.15
2023-02-05T06:48:00.415Z,5.05
2023-02-05T06:50:27.798Z,3.70
2023-02-05T06:52:54.968Z,3.72
2023-02-05T06:55:22.046Z,4.38
2023-02-05T06:57:49.457Z,5.53
2023-02-05T07:00:17.893Z,5.60
2023-02-05T07:02:46.417Z,4.75
2023-02-05T07:05:13.414Z,4.90
2023-02-05T07:07:42.038Z,4.95
2023-02-05T07:10:09.287Z,5.43
2023-02-05T07:12:36.713Z,4.25
2023-02-05T07:15:04.427Z,4.65
2023-02-05T07:17:31.556Z,4.93
2023-02-05T07:19:58.849Z,4.50
2023-02-05T07:22:26.593Z,5.78
2023-02-05T07:24:53.468Z,5.18
2023-02-05T07:27:20.416Z,5.30
2023-02-05T07:29:47.592Z,5.30
2023-02-05T07:32:14.664Z,5.85
2023-02-05T07:34:41.743Z,4.55
2023-02-05T07:37:08.811Z,5.22
2023-02-05T07:39:35.956Z,5.63
2023-02-05T07:42:03.019Z,4.90
2023-02-05T07:44:38.099Z,5.32
2023-02-05T07:47:05.476Z,5.35
2023-02-05T07:49:32.392Z,4.90
2023-02-05T07:51:59.665Z,6.03
2023-02-05T07:54:26.600Z,4.75
2023-02-05T07:56:55.470Z,5.75
2023-02-05T07:59:22.467Z,5.75
2023-02-05T08:01:49.512Z,5.10
2023-02-05T08:04:16.489Z,5.53
2023-02-05T08:06:44.325Z,6.80
2023-02-05T08:09:11.825Z,6.03
2023-02-05T08:11:38.883Z,5.38
2023-02-05T08:14:05.902Z,5.72
2023-02-05T08:16:33.059Z,6.22
2023-02-05T08:19:00.102Z,5.18
2023-02-05T08:21:30.228Z,5.00
2023-02-05T08:23:58.662Z,4.57
2023-02-05T08:26:25.944Z,5.40
2023-02-05T08:28:52.967Z,5.15
2023-02-05T08:31:20.382Z,5.18
2023-02-05T08:33:48.180Z,5.55
2023-02-05T08:36:15.506Z,7.05
2023-02-05T08:38:42.573Z,6.63
2023-02-05T08:41:14.084Z,6.53
2023-02-05T08:43:47.115Z,6.30
2023-02-05T08:46:17.674Z,7.90
2023-02-05T08:48:45.278Z,6.28
2023-02-05T08:51:14.647Z,5.88
2023-02-05T08:53:42.024Z,6.43
2023-02-05T08:56:14.058Z,7.38
2023-02-05T08:58:41.317Z,5.43
2023-02-05T09:01:11.522Z,6.32
2023-02-05T09:03:39.194Z,5.75
2023-02-05T09:06:08.657Z,6.93
2023-02-05T09:08:36.850Z,5.97
2023-02-05T09:11:05.528Z,6.85
2023-02-05T09:13:32.793Z,6.63
2023-02-05T09:15:59.917Z,6.63
2023-02-05T09:18:26.970Z,6.15
2023-02-05T09:20:54.805Z,7.15
2023-02-05T09:23:22.091Z,5.80
2023-02-05T09:25:49.523Z,7.15
2023-02-05T09:28:16.970Z,6.70
2023-02-05T09:30:45.980Z,6.00
2023-02-05T09:33:14.437Z,6.13
2023-02-05T09:35:42.345Z,6.32
2023-02-05T09:38:10.394Z,6.65
2023-02-05T09:40:43.607Z,6.32
2023-02-05T09:43:41.549Z,6.75
2023-02-05T09:46:12.811Z,5.82
2023-02-05T09:48:54.346Z,6.07
2023-02-05T09:51:27.585Z,6.50
2023-02-05T09:53:59.749Z,5.93
2023-02-05T09:56:28.716Z,6.38
2023-02-05T09:58:58.686Z,5.97
2023-02-05T10:01:44.511Z,6.93
2023-02-05T10:06:48.238Z,7.07
2023-02-05T10:09:21.284Z,7.72
2023-02-05T10:12:11.264Z,6.90
2023-02-05T10:14:53.598Z,7.35
2023-02-05T10:17:29.754Z,6.20
2023-02-05T10:20:10.577Z,7.72
2023-02-05T10:22:48.561Z,6.05
2023-02-05T10:25:21.806Z,6.70
2023-02-05T10:28:21.280Z,7.10
2023-02-05T10:30:54.711Z,6.45
2023-02-05T10:33:40.558Z,7.00
2023-02-05T10:38:40.974Z,6.30
2023-02-05T10:41:17.184Z,5.82
2023-02-05T10:44:22.115Z,5.47
2023-02-05T10:46:55.555Z,7.20
2023-02-05T10:49:35.705Z,7.22
2023-02-05T10:52:02.758Z,6.65
2023-02-05T10:54:34.112Z,5.70
2023-02-05T10:57:01.849Z,6.78
2023-02-05T10:59:37.986Z,6.82
2023-02-05T11:02:08.400Z,6.72
2023-02-05T11:04:55.441Z,6.47
2023-02-05T11:07:30.560Z,5.93
2023-02-05T11:10:21.488Z,7.55
2023-02-05T11:12:51.698Z,6.35
2023-02-05T11:15:25.135Z,6.63
2023-02-05T11:17:54.477Z,5.53
2023-02-05T11:20:37.345Z,6.03
2023-02-05T11:23:25.349Z,8.13
2023-02-05T11:25:58.088Z,7.82
2023-02-05T11:28:32.048Z,8.02
2023-02-05T11:31:26.035Z,6.53
2023-02-05T11:34:12.138Z,8.23
2023-02-05T11:39:07.798Z,6.07
2023-02-05T11:41:48.888Z,5.28
2023-02-05T11:44:22.001Z,6.13
2023-02-05T11:46:49.761Z,6.15
2023-02-05T11:49:22.614Z,6.05
2023-02-05T11:51:55.506Z,5.82
2023-02-05T11:54:27.348Z,5.90
2023-02-05T11:57:07.724Z,6.07
2023-02-05T11:59:36.283Z,7.18
2023-02-05T12:02:30.638Z,5.57
2023-02-05T12:05:09.864Z,6.53
2023-02-05T12:08:15.709Z,5.40
2023-02-05T12:11:16.267Z,5.70
2023-02-05T12:14:00.572Z,5.97
2023-02-05T12:16:48.304Z,7.13
2023-02-05T12:19:44.722Z,5.60
2023-02-05T12:22:39.865Z,6.22
2023-02-05T12:25:20.076Z,6.90
2023-02-05T12:27:56.550Z,5.10
2023-02-05T12:30:41.124Z,5.88
2023-02-05T12:33:24.111Z,5.53
2023-02-05T12:36:29.204Z,6.53
2023-02-05T12:39:12.669Z,6.22
2023-02-05T12:41:59.558Z,6.68
2023-02-05T12:44:38.222Z,5.45
2023-02-05T12:47:12.038Z,5.28
2023-02-05T12:50:04.361Z,6.70
2023-02-05T12:52:44.157Z,5.25
2023-02-05T12:55:46.236Z,5.88
2023-02-05T12:58:15.875Z,5.88
2023-02-05T13:00:57.086Z,6.00
2023-02-05T13:03:46.942Z,5.60
2023-02-05T13:06:30.156Z,6.55
2023-02-05T13:09:04.966Z,6.78
2023-02-05T13:11:59.860Z,6.38
2023-02-05T13:14:50.020Z,5.68
2023-02-05T13:17:41.369Z,6.07
2023-02-05T13:20:22.051Z,6.18
2023-02-05T13:23:16.667Z,6.13
2023-02-05T13:26:08.561Z,6.45
2023-02-05T13:28:48.111Z,6.30
2023-02-05T13:31:21.354Z,5.90
2023-02-05T13:33:49.408Z,6.03
2023-02-05T13:36:27.565Z,5.93
2023-02-05T13:39:34.464Z,6.00
2023-02-05T13:42:33.118Z,6.00
2023-02-05T13:45:00.117Z,6.03
2023-02-05T13:47:52.096Z,6.22
2023-02-05T13:50:56.867Z,5.47
2023-02-05T13:53:29.580Z,5.60
2023-02-05T13:56:24.771Z,5.45
2023-02-05T13:58:57.710Z,6.22
2023-02-05T14:01:29.733Z,6.20
2023-02-05T14:04:21.551Z,4.53
2023-02-05T14:07:17.184Z,6.43
2023-02-05T14:09:54.192Z,5.07
2023-02-05T14:12:39.686Z,7.70
2023-02-05T14:15:37.102Z,5.15
2023-02-05T14:18:04.701Z,5.10
2023-02-05T14:20:37.977Z,5.50
2023-02-05T14:23:43.667Z,5.70
2023-02-05T14:26:11.950Z,6.03
2023-02-05T14:28:50.627Z,5.20
2023-02-05T14:31:46.599Z,5.38
2023-02-05T14:34:31.809Z,5.60
2023-02-05T14:36:59.783Z,5.95
2023-02-05T14:39:32.873Z,6.07
2023-02-05T14:42:05.490Z,6.80
2023-02-05T14:44:39.482Z,5.07
2023-02-05T14:47:28.125Z,4.93
2023-02-05T14:50:11.255Z,6.07
2023-02-05T14:52:46.578Z,5.82
2023-02-05T14:55:13.805Z,6.18
2023-02-05T14:57:41.363Z,5.30
2023-02-05T15:00:17.728Z,6.32
2023-02-05T15:03:06.193Z,5.70
2023-02-05T15:05:36.544Z,6.35
2023-02-05T15:08:31.572Z,5.93
2023-02-05T15:11:30.655Z,7.25
2023-02-05T15:14:22.714Z,6.10
2023-02-05T15:17:32.588Z,6.35
2023-02-05T15:20:20.206Z,6.35
2023-02-05T15:22:55.334Z,6.60
2023-02-05T15:25:52.859Z,5.88
2023-02-05T15:28:38.467Z,6.03
2023-02-05T15:31:29.408Z,5.45
2023-02-05T15:34:17.690Z,5.95
2023-02-05T15:36:59.225Z,6.07
2023-02-05T15:39:47.747Z,6.28
2023-02-05T15:42:22.149Z,6.15
2023-02-05T15:44:49.442Z,6.30
2023-02-05T15:47:24.988Z,6.55
2023-02-05T15:49:57.643Z,6.65
2023-02-05T15:52:29.433Z,5.43
2023-02-05T15:55:00.596Z,5.30
2023-02-05T15:57:32.252Z,6.93
2023-02-05T16:00:02.203Z,6.63
2023-02-05T16:02:31.593Z,5.82
2023-02-05T16:05:02.114Z,7.38
2023-02-05T16:07:35.372Z,6.82
2023-02-05T16:10:16.749Z,6.35
2023-02-05T16:13:02.815Z,9.60
2023-02-05T16:15:58.723Z,7.22
2023-02-05T16:18:34.334Z,8.05
2023-02-05T16:23:46.032Z,7.22
2023-02-05T16:26:28.606Z,7.13
2023-02-05T16:29:02.879Z,7.57
2023-02-05T16:31:31.752Z,6.82
2023-02-05T16:34:00.245Z,6.60
2023-02-05T16:36:32.152Z,7.00
2023-02-05T16:39:02.656Z,6.20
2023-02-05T16:41:33.308Z,7.20
2023-02-05T16:44:04.064Z,6.78
2023-02-05T16:46:32.527Z,7.95
2023-02-05T16:49:28.556Z,7.60
2023-02-05T16:51:56.490Z,7.18
2023-02-05T16:54:35.959Z,6.97
2023-02-05T16:57:15.418Z,6.32
2023-02-05T16:59:59.663Z,6.72
2023-02-05T17:02:32.585Z,7.03
2023-02-05T17:05:01.659Z,7.47
2023-02-05T17:07:29.061Z,7.82
2023-02-05T17:10:26.083Z,8.07
2023-02-05T17:13:05.562Z,9.25
2023-02-05T17:15:40.308Z,7.07
2023-02-05T17:18:22.938Z,6.55
2023-02-05T17:20:50.615Z,7.35
2023-02-05T17:23:18.515Z,6.32
2023-02-05T17:25:55.297Z,7.22
2023-02-05T17:28:28.279Z,7.88
2023-02-05T17:31:00.171Z,8.20
2023-02-05T17:33:28.705Z,6.68
2023-02-05T17:35:56.001Z,7.78
2023-02-05T17:38:25.814Z,7.50
2023-02-05T17:41:12.888Z,7.03
2023-02-05T17:43:40.276Z,7.57
2023-02-05T17:46:14.009Z,6.68
2023-02-05T17:48:41.702Z,7.38
2023-02-05T17:51:20.165Z,6.78
2023-02-05T17:53:49.013Z,7.38
2023-02-05T17:56:19.460Z,7.30
2023-02-05T17:58:46.932Z,6.65
2023-02-05T18:01:14.237Z,6.25
2023-02-05T18:03:41.931Z,7.20
2023-02-05T18:06:12.181Z,6.93
2023-02-05T18:08:39.576Z,8.20
2023-02-05T18:11:06.817Z,23.70
2023-02-05T18:13:33.892Z,7.15
2023-02-05T18:16:03.731Z,7.20
2023-02-05T18:18:32.332Z,9.77
2023-02-05T18:20:59.622Z,7.22
2023-02-05T18:23:29.438Z,7.55
2023-02-05T18:25:58.337Z,7.20
2023-02-05T18:28:25.375Z,6.63
2023-02-05T18:30:58.074Z,6.60
2023-02-05T18:33:25.192Z,7.95
2023-02-05T18:35:52.635Z,8.48
2023-02-05T18:38:21.749Z,7.88
2023-02-05T18:40:50.377Z,8.00
2023-02-05T18:43:17.877Z,9.07
2023-02-05T18:45:45.299Z,7.78
2023-02-05T18:48:12.557Z,8.18
2023-02-05T18:50:39.577Z,8.05
2023-02-05T18:53:06.878Z,7.80
2023-02-05T18:55:36.077Z,6.88
2023-02-05T18:58:04.228Z,7.20
2023-02-05T19:00:32.188Z,9.95
2023-02-05T19:02:59.862Z,7.57
2023-02-05T19:05:27.037Z,7.65
2023-02-05T19:07:54.351Z,7.75
2023-02-05T19:10:21.525Z,7.30
2023-02-05T19:12:50.581Z,7.80
2023-02-05T19:15:18.007Z,7.05
2023-02-05T19:17:45.085Z,6.65
2023-02-05T19:20:12.310Z,7.65
2023-02-05T19:22:39.414Z,7.50
2023-02-05T19:25:07.074Z,7.38
2023-02-05T19:27:34.220Z,8.50
2023-02-05T19:30:01.436Z,8.00
2023-02-05T19:32:28.479Z,6.50
2023-02-05T19:34:55.846Z,7.30
2023-02-05T19:37:23.075Z,7.50
2023-02-05T19:39:49.995Z,6.93
2023-02-05T19:42:17.031Z,8.38
2023-02-05T19:44:44.040Z,9.18
2023-02-05T19:47:11.478Z,8.48
2023-02-05T19:49:38.723Z,6.68
2023-02-05T19:52:07.594Z,8.85
2023-02-05T19:54:34.622Z,7.90
2023-02-05T19:57:02.680Z,7.03
2023-02-05T19:59:29.654Z,7.72
2023-02-05T20:01:56.664Z,9.07
2023-02-05T20:04:26.387Z,7.78
2023-02-05T20:06:58.933Z,7.68
2023-02-05T20:09:27.412Z,7.82
2023-02-05T20:11:55.562Z,8.30
2023-02-05T20:14:23.973Z,8.75
2023-02-05T20:16:52.151Z,7.00
2023-02-05T20:19:20.503Z,8.07
2023-02-05T20:21:47.832Z,7.28
2023-02-05T20:24:16.396Z,7.28
2023-02-05T20:26:44.115Z,7.55
2023-02-05T20:29:30.359Z,7.40
2023-02-05T20:31:58.635Z,8.73
2023-02-05T20:34:30.741Z,7.63
2023-02-05T20:37:00.833Z,7.10
2023-02-05T20:39:29.084Z,8.57
2023-02-05T20:41:58.059Z,7.60
2023-02-05T20:44:32.779Z,9.82
2023-02-05T20:47:00.023Z,7.85
2023-02-05T20:49:27.068Z,8.57
2023-02-05T20:51:54.367Z,8.32
2023-02-05T20:54:22.782Z,7.55
2023-02-05T20:56:59.531Z,8.05
2023-02-05T20:59:34.627Z,9.10
2023-02-05T21:02:02.967Z,7.05
2023-02-05T21:04:30.185Z,9.07
2023-02-05T21:06:58.441Z,8.23
2023-02-05T21:09:25.474Z,6.70
2023-02-05T21:11:55.803Z,8.35
2023-02-05T21:14:23.714Z,7.43
2023-02-05T21:16:50.859Z,10.30
2023-02-05T21:19:18.557Z,8.57
2023-02-05T21:21:45.953Z,8.10
2023-02-05T21:24:15.094Z,9.07
2023-02-05T21:26:47.128Z,9.15
2023-02-05T21:29:17.242Z,7.88
2023-02-05T21:31:47.004Z,8.40
2023-02-05T21:34:17.885Z,8.10
2023-02-05T21:36:47.528Z,8.48
2023-02-05T21:39:17.489Z,7.90
2023-02-05T21:41:48.894Z,7.28
2023-02-05T21:44:16.211Z,7.60
2023-02-05T21:46:43.284Z,7.63
2023-02-05T21:49:11.287Z,8.25
2023-02-05T21:51:38.342Z,7.85
2023-02-05T21:54:06.736Z,7.60
2023-02-05T21:56:40.698Z,7.65
2023-02-05T21:59:07.893Z,6.50
2023-02-05T22:01:36.591Z,7.30
2023-02-05T22:04:08.283Z,7.40
2023-02-05T22:06:36.010Z,7.95
2023-02-05T22:09:06.004Z,6.90
2023-02-05T22:11:33.866Z,7.22
2023-02-05T22:14:00.939Z,8.50
2023-02-05T22:16:33.483Z,7.43
2023-02-05T22:19:01.457Z,7.60
2023-02-05T22:21:31.321Z,8.27
2023-02-05T22:24:00.535Z,7.80
2023-02-05T22:26:30.956Z,7.72
2023-02-05T22:28:59.364Z,7.85
2023-02-05T22:31:28.106Z,7.47
2023-02-05T22:33:55.975Z,7.00
2023-02-05T22:36:25.594Z,8.30
2023-02-05T22:38:55.440Z,7.25
2023-02-05T22:41:33.793Z,7.45
2023-02-05T22:44:02.374Z,7.38
2023-02-05T22:46:32.810Z,6.88
2023-02-05T22:49:01.399Z,8.02
2023-02-05T22:51:31.806Z,6.43
2023-02-05T22:53:59.633Z,6.82
2023-02-05T22:56:27.157Z,6.97
2023-02-05T22:58:55.284Z,6.93
2023-02-05T23:01:29.553Z,7.10
2023-02-05T23:03:58.484Z,6.38
2023-02-05T23:06:26.697Z,7.40
2023-02-05T23:09:03.457Z,7.50
2023-02-05T23:11:32.390Z,6.20
2023-02-05T23:14:00.670Z,8.05
2023-02-05T23:16:37.829Z,7.60
2023-02-05T23:19:07.881Z,7.43
2023-02-05T23:21:37.402Z,6.20
2023-02-05T23:24:07.407Z,5.97
2023-02-05T23:26:40.218Z,7.07
2023-02-05T23:29:07.868Z,6.90
2023-02-05T23:31:35.332Z,6.90
2023-02-05T23:34:02.795Z,6.25
2023-02-05T23:36:29.936Z,6.68
2023-02-05T23:38:57.053Z,5.70
2023-02-05T23:41:36.367Z,6.32
2023-02-05T23:44:11.979Z,6.35
2023-02-05T23:49:07.127Z,6.03
2023-02-05T23:51:34.671Z,7.35
2023-02-05T23:54:02.386Z,5.35
2023-02-05T23:56:29.959Z,6.30
2023-02-05T23:58:57.327Z,6.60
